Rock Island, TN

2:43 AM CDT on March 27, 2015 (GMT -0500)
Rock Island | | Change Station
CLOSE
Current Station
Personal Weather Station
Location: Rock Island, TN
Elevation: 886 ft
Nearby Weather Stations
Active Advisory: Freeze Watch

Elev 886 ft 35.79 °N, 85.61 °W | Updated 4 seconds ago

Overcast
Overcast
41.9 °F
Feels Like 37 °F
N
7.6
Wind Variable Wind from North
Gusts 17.4 mph

Today
High -- | Low -- °F
--% Chance of Precip.
Yesterday
High -- | Low -- °F
Precip. -- in
6:36 AM 7:00 PM
Waxing Crescent, 50% visible
Pressure 29.92 in
Visibility 8.0 miles
Clouds Overcast 1100 ft
Windchill 37 °F
Dew Point 41 °F
Humidity 97%
Rainfall 0.00 in
Snow Depth Not available.
UV 0 out of 12
Pollen 9.20 out of 12
Air Quality Not available.
Flu Activity Not available.
METAR KSRB 270735Z AUTO VRB04KT 8SM OVC011 05/04 A2992 RMK

More Conditions Fewer Conditions

Pressure 29.92 in
Visibility 8.0 miles
Clouds Overcast 1100 ft
Windchill 37 °F
Dew Point 41 °F
Humidity 97%
Rainfall 0.00 in
Snow Depth Not available.
UV 0 out of 12
Pollen 9.20 out of 12
Air Quality Not available.
Flu Activity Not available.
METAR KSRB 270735Z AUTO VRB04KT 8SM OVC011 05/04 A2992 RMK

More Conditions Fewer Conditions

10-Day Weather Forecast

Almanac

Astronomy

Mar. 27, 2015 Rise Set
Actual Time
Civil Twilight
Nautical Twilight
Astronomical Twilight
Moon
Length of Visible Light
Length of Day
Tomorrow will be .
, % of the Moon is Illuminated

Today's Extremes

State Highs State Lows

Community

WunderPhotos

Upload Photos

1,808,702 photos uploaded!

WunderBlogs® & News

Nearby

Air Quality

  Air Quality AQ Index Pollutant
Not available.

Snow Depth

Station Depth Elevation

Earthquake Activity

City Distance Mag. Time & Date
Minimum magnitude displayed is 2.5.

Coastal Water Temperatures

Place Temperature

Stations

Nearby Weather Stations

Station Location Temp. Windchill Dew Point Humidity Wind Precip. Elev Updated Type
                   
Freeze Watch
Statement as of 9:16 PM CDT on March 26, 2015

... Freeze watch remains in effect from late Friday night through
Saturday morning...

* temperature... 22 degrees to 30 degrees.

* Impacts... sensitive vegetation may be killed or damaged.

Precautionary/preparedness actions...

A freeze watch means sub-freezing temperatures are possible.
These conditions could kill crops and other sensitive vegetation.



Rose